createdAt,value
2022-09-07T00:00:41.273Z,18.40
2022-09-07T00:03:08.231Z,18.40
2022-09-07T00:05:42.270Z,18.40
2022-09-07T00:08:09.350Z,18.40
2022-09-07T00:10:36.864Z,18.40
2022-09-07T00:13:05.246Z,18.40
2022-09-07T00:15:32.501Z,18.40
2022-09-07T00:17:59.808Z,18.40
2022-09-07T00:20:26.843Z,18.40
2022-09-07T00:22:53.804Z,18.40
2022-09-07T00:25:20.831Z,18.40
2022-09-07T00:27:47.795Z,18.40
2022-09-07T00:30:14.697Z,18.50
2022-09-07T00:32:41.677Z,18.50
2022-09-07T00:35:09.057Z,18.50
2022-09-07T00:37:35.935Z,18.40
2022-09-07T00:40:03.418Z,18.40
2022-09-07T00:42:30.395Z,18.40
2022-09-07T00:45:18.373Z,18.40
2022-09-07T00:48:06.937Z,18.40
2022-09-07T00:50:40.958Z,18.40
2022-09-07T00:53:20.099Z,18.40
2022-09-07T00:55:49.820Z,18.40
2022-09-07T00:58:17.917Z,18.40
2022-09-07T01:00:47.099Z,18.40
2022-09-07T01:03:23.903Z,18.40
2022-09-07T01:05:57.006Z,18.40
2022-09-07T01:08:24.455Z,18.40
2022-09-07T01:10:51.574Z,18.40
2022-09-07T01:13:18.493Z,18.40
2022-09-07T01:15:56.941Z,18.40
2022-09-07T01:18:59.228Z,18.50
2022-09-07T01:21:44.893Z,18.40
2022-09-07T01:24:48.723Z,18.40
2022-09-07T01:27:59.421Z,18.40
2022-09-07T01:30:29.476Z,18.30
2022-09-07T01:33:18.240Z,18.30
2022-09-07T01:35:50.518Z,18.30
2022-09-07T01:38:43.141Z,18.30
2022-09-07T01:41:25.183Z,18.30
2022-09-07T01:44:00.941Z,18.30
2022-09-07T01:46:57.637Z,18.20
2022-09-07T01:49:50.156Z,18.20
2022-09-07T01:52:29.459Z,18.20
2022-09-07T01:55:05.156Z,18.20
2022-09-07T01:57:49.966Z,18.20
2022-09-07T02:00:19.633Z,18.10
2022-09-07T02:02:52.489Z,18.10
2022-09-07T02:05:42.839Z,18.10
2022-09-07T02:08:15.003Z,18.10
2022-09-07T02:10:53.565Z,18.10
2022-09-07T02:13:26.713Z,18.10
2022-09-07T02:16:22.996Z,18.10
2022-09-07T02:18:54.895Z,18.00
2022-09-07T02:21:30.151Z,18.00
2022-09-07T02:24:15.210Z,18.00
2022-09-07T02:26:45.759Z,17.90
2022-09-07T02:29:12.654Z,17.80
2022-09-07T02:31:39.548Z,17.80
2022-09-07T02:34:07.476Z,17.80
2022-09-07T02:36:42.200Z,17.80
2022-09-07T02:39:09.246Z,17.80
2022-09-07T02:41:42.192Z,17.80
2022-09-07T02:44:17.606Z,17.80
2022-09-07T02:47:08.796Z,17.80
2022-09-07T02:49:57.883Z,17.80
2022-09-07T02:52:47.529Z,17.70
2022-09-07T02:55:45.497Z,17.70
2022-09-07T02:58:42.727Z,17.70
2022-09-07T03:01:31.782Z,17.60
2022-09-07T03:04:13.844Z,17.60
2022-09-07T03:06:45.229Z,17.60
2022-09-07T03:09:18.888Z,17.50
2022-09-07T03:11:46.187Z,17.50
2022-09-07T03:14:17.788Z,17.50
2022-09-07T03:16:46.111Z,17.40
2022-09-07T03:19:13.079Z,17.50
2022-09-07T03:21:39.897Z,17.40
2022-09-07T03:24:07.061Z,17.40
2022-09-07T03:26:35.514Z,17.40
2022-09-07T03:29:02.339Z,17.40
2022-09-07T03:31:29.144Z,17.40
2022-09-07T03:33:56.134Z,17.40
2022-09-07T03:36:23.055Z,17.40
2022-09-07T03:38:50.253Z,17.40
2022-09-07T03:41:17.199Z,17.40
2022-09-07T03:43:44.503Z,17.30
2022-09-07T03:46:11.661Z,17.30
2022-09-07T03:48:39.436Z,17.40
2022-09-07T03:51:09.661Z,17.30
2022-09-07T03:53:39.972Z,17.30
2022-09-07T03:56:09.945Z,17.30
2022-09-07T03:58:37.220Z,17.30
2022-09-07T04:01:09.656Z,17.30
2022-09-07T04:03:37.302Z,17.30
2022-09-07T04:06:05.126Z,17.20
2022-09-07T04:08:34.171Z,17.20
2022-09-07T04:11:03.020Z,17.20
2022-09-07T04:13:31.142Z,17.20
2022-09-07T04:15:58.668Z,17.20
2022-09-07T04:18:25.846Z,17.20
2022-09-07T04:20:52.963Z,17.20
2022-09-07T04:23:20.345Z,17.20
2022-09-07T04:25:51.588Z,17.20
2022-09-07T04:28:20.269Z,17.30
2022-09-07T04:30:47.913Z,17.20
2022-09-07T04:33:15.474Z,17.20
2022-09-07T04:35:43.339Z,17.20
2022-09-07T04:38:14.440Z,17.20
2022-09-07T04:40:42.048Z,17.20
2022-09-07T04:43:12.944Z,17.20
2022-09-07T04:45:40.422Z,17.20
2022-09-07T04:48:07.631Z,17.20
2022-09-07T04:50:34.789Z,17.20
2022-09-07T04:53:01.669Z,17.20
2022-09-07T04:55:28.582Z,17.20
2022-09-07T04:57:55.478Z,17.20
2022-09-07T05:00:22.623Z,17.20
2022-09-07T05:02:49.541Z,17.20
2022-09-07T05:05:16.634Z,17.20
2022-09-07T05:07:43.688Z,17.20
2022-09-07T05:10:10.806Z,17.10
2022-09-07T05:12:37.839Z,17.10
2022-09-07T05:15:05.557Z,17.10
2022-09-07T05:17:32.485Z,17.20
2022-09-07T05:19:59.390Z,17.20
2022-09-07T05:22:26.374Z,17.20
2022-09-07T05:24:53.364Z,17.20
2022-09-07T05:27:20.342Z,17.20
2022-09-07T05:30:03.768Z,17.20
2022-09-07T05:32:32.159Z,17.30
2022-09-07T05:34:59.099Z,17.20
2022-09-07T05:37:25.970Z,17.20
2022-09-07T05:39:56.942Z,17.20
2022-09-07T05:42:24.117Z,17.30
2022-09-07T05:44:50.950Z,17.20
2022-09-07T05:47:17.861Z,17.30
2022-09-07T05:49:44.730Z,17.30
2022-09-07T05:52:11.644Z,17.30
2022-09-07T05:54:38.913Z,17.30
2022-09-07T05:57:07.135Z,17.30
2022-09-07T05:59:34.428Z,14.90
2022-09-07T06:02:01.665Z,17.40
2022-09-07T06:04:28.666Z,17.40
2022-09-07T06:12:29.442Z,17.40
2022-09-07T06:14:56.431Z,17.50
2022-09-07T06:17:23.287Z,17.60
2022-09-07T06:19:50.171Z,17.60
2022-09-07T06:22:17.063Z,17.70
2022-09-07T06:24:43.953Z,17.80
2022-09-07T06:27:11.084Z,18.00
2022-09-07T06:29:38.137Z,18.40
2022-09-07T06:34:52.086Z,19.10
2022-09-07T06:37:18.945Z,19.50
2022-09-07T06:39:45.950Z,19.90
2022-09-07T06:42:12.822Z,20.20
2022-09-07T06:44:39.850Z,20.60
2022-09-07T06:47:06.737Z,20.90
2022-09-07T06:49:33.641Z,21.20
2022-09-07T06:52:00.485Z,21.60
2022-09-07T06:57:14.340Z,22.10
2022-09-07T06:59:41.271Z,22.40
2022-09-07T07:02:10.255Z,22.70
2022-09-07T07:04:40.906Z,22.90
2022-09-07T07:07:13.665Z,23.00
2022-09-07T07:09:41.475Z,23.20
2022-09-07T07:12:08.862Z,23.30
2022-09-07T07:14:37.375Z,23.50
2022-09-07T07:17:06.868Z,23.70
2022-09-07T07:19:33.884Z,24.00
2022-09-07T07:24:47.585Z,24.30
2022-09-07T07:27:14.504Z,24.40
2022-09-07T07:29:41.462Z,24.50
2022-09-07T07:32:08.369Z,24.70
2022-09-07T07:34:35.260Z,24.80
2022-09-07T07:37:02.101Z,25.00
2022-09-07T07:42:15.768Z,25.20
2022-09-07T07:44:42.716Z,25.30
2022-09-07T07:47:10.082Z,25.60
2022-09-07T07:49:36.976Z,25.90
2022-09-07T07:54:53.072Z,26.30
2022-09-07T07:57:20.089Z,26.40
2022-09-07T07:59:46.993Z,26.70
2022-09-07T08:02:16.482Z,25.80
2022-09-07T08:04:43.433Z,27.00
2022-09-07T08:07:12.079Z,27.20
2022-09-07T08:09:47.435Z,27.30
2022-09-07T08:12:17.644Z,27.30
2022-09-07T08:14:45.021Z,27.30
2022-09-07T08:17:13.704Z,27.30
2022-09-07T08:19:41.375Z,27.30
2022-09-07T08:22:10.060Z,27.20
2022-09-07T08:24:37.060Z,27.30
2022-09-07T08:27:04.081Z,27.40
2022-09-07T08:29:34.614Z,27.50
2022-09-07T08:32:03.858Z,27.40
2022-09-07T08:34:30.956Z,27.40
2022-09-07T08:36:58.123Z,27.50
2022-09-07T08:39:25.040Z,27.40
2022-09-07T08:42:10.397Z,27.50
2022-09-07T08:44:46.178Z,27.10
2022-09-07T08:47:18.781Z,26.90
2022-09-07T08:50:01.563Z,26.50
2022-09-07T08:52:37.622Z,26.40
2022-09-07T08:55:17.201Z,26.40
2022-09-07T08:58:14.530Z,26.40
2022-09-07T09:01:30.762Z,26.30
2022-09-07T09:06:54.170Z,25.80
2022-09-07T09:09:29.977Z,25.70
2022-09-07T09:12:37.565Z,25.50
2022-09-07T09:15:21.333Z,25.50
2022-09-07T09:18:00.220Z,25.40
2022-09-07T09:20:37.162Z,25.20
2022-09-07T09:23:13.429Z,25.00
2022-09-07T09:25:47.450Z,24.90
2022-09-07T09:28:14.395Z,24.90
2022-09-07T09:30:42.207Z,24.80
2022-09-07T09:33:27.356Z,24.80
2022-09-07T09:36:00.237Z,24.80
2022-09-07T09:38:34.596Z,24.70
2022-09-07T09:41:06.376Z,24.70
2022-09-07T09:43:55.004Z,24.70
2022-09-07T09:46:37.574Z,24.80
2022-09-07T09:49:19.785Z,24.90
2022-09-07T09:54:43.397Z,24.90
2022-09-07T09:57:16.519Z,24.90
2022-09-07T10:00:02.777Z,24.90
2022-09-07T10:05:41.035Z,24.80
2022-09-07T10:08:37.348Z,24.80
2022-09-07T10:11:08.181Z,24.90
2022-09-07T10:13:43.411Z,24.90
2022-09-07T10:16:14.957Z,24.90
2022-09-07T10:18:55.674Z,24.90
2022-09-07T10:21:26.861Z,24.90
2022-09-07T10:24:01.163Z,24.90
2022-09-07T10:26:30.340Z,25.00
2022-09-07T10:29:36.012Z,25.00
2022-09-07T10:32:18.575Z,25.10
2022-09-07T10:35:08.787Z,25.00
2022-09-07T10:38:11.522Z,24.90
2022-09-07T10:40:51.252Z,24.90
2022-09-07T10:43:42.880Z,24.90
2022-09-07T10:49:40.926Z,25.10
2022-09-07T10:52:29.056Z,25.20
2022-09-07T10:54:56.050Z,25.40
2022-09-07T10:57:25.757Z,25.40
2022-09-07T11:00:12.092Z,25.50
2022-09-07T11:06:15.871Z,25.60
2022-09-07T11:09:17.191Z,25.60
2022-09-07T11:12:06.227Z,25.70
2022-09-07T11:14:45.335Z,25.60
2022-09-07T11:17:31.176Z,25.50
2022-09-07T11:20:24.371Z,25.50
2022-09-07T11:23:16.634Z,25.40
2022-09-07T11:26:07.500Z,25.40
2022-09-07T11:32:06.951Z,25.30
2022-09-07T11:34:41.116Z,25.30
2022-09-07T11:37:22.030Z,25.40
2022-09-07T11:39:57.926Z,25.70
2022-09-07T11:42:53.923Z,25.70
2022-09-07T11:45:36.155Z,25.70
2022-09-07T11:48:10.471Z,25.70
2022-09-07T11:50:43.448Z,25.80
2022-09-07T11:53:43.027Z,26.00
2022-09-07T11:56:26.668Z,26.10
2022-09-07T11:59:05.624Z,26.20
2022-09-07T12:01:53.605Z,26.30
2022-09-07T12:04:32.538Z,26.30
2022-09-07T12:07:25.630Z,26.20
2022-09-07T12:10:07.557Z,26.20
2022-09-07T12:13:25.000Z,26.20
2022-09-07T12:16:28.621Z,26.20
2022-09-07T12:19:22.435Z,26.20
2022-09-07T12:21:55.923Z,26.30
2022-09-07T12:24:51.562Z,26.40
2022-09-07T12:27:21.561Z,26.50
2022-09-07T12:29:48.400Z,26.40
2022-09-07T12:32:54.283Z,26.50
2022-09-07T12:35:28.330Z,26.50
2022-09-07T12:37:56.640Z,26.50
2022-09-07T12:40:29.836Z,26.60
2022-09-07T12:43:15.001Z,26.60
2022-09-07T12:45:44.609Z,26.50
2022-09-07T12:48:17.732Z,26.30
2022-09-07T12:50:56.784Z,26.30
2022-09-07T12:53:47.908Z,26.40
2022-09-07T12:56:45.492Z,26.50
2022-09-07T12:59:31.121Z,26.40
2022-09-07T13:02:10.076Z,26.20
2022-09-07T13:04:50.087Z,26.10
2022-09-07T13:07:43.350Z,26.00
2022-09-07T13:10:40.708Z,26.10
2022-09-07T13:17:16.107Z,26.20
2022-09-07T13:19:50.695Z,26.20
2022-09-07T13:22:32.701Z,26.30
2022-09-07T13:25:24.701Z,26.50
2022-09-07T13:28:00.570Z,26.50
2022-09-07T13:30:33.665Z,26.60
2022-09-07T13:33:26.021Z,26.70
2022-09-07T13:35:56.667Z,26.80
2022-09-07T13:38:23.672Z,26.80
2022-09-07T13:40:52.411Z,27.00
2022-09-07T13:43:24.425Z,27.20
2022-09-07T13:45:54.502Z,27.20
2022-09-07T13:48:30.857Z,27.30
2022-09-07T13:51:22.611Z,27.10
2022-09-07T13:53:52.599Z,26.90
2022-09-07T13:56:46.851Z,26.90
2022-09-07T13:59:26.527Z,26.90
2022-09-07T14:01:55.327Z,26.90
2022-09-07T14:04:41.962Z,27.00
2022-09-07T14:07:15.310Z,27.00
2022-09-07T14:09:42.724Z,26.90
2022-09-07T14:12:19.272Z,26.90
2022-09-07T14:14:47.277Z,27.00
2022-09-07T14:17:18.115Z,26.90
2022-09-07T14:19:46.500Z,26.90
2022-09-07T14:22:23.268Z,26.90
2022-09-07T14:24:51.344Z,26.80
2022-09-07T14:27:25.356Z,26.80
2022-09-07T14:29:52.665Z,27.10
2022-09-07T14:32:23.925Z,26.70
2022-09-07T14:34:52.136Z,26.70
2022-09-07T14:37:22.000Z,26.50
2022-09-07T14:39:50.735Z,26.40
2022-09-07T14:42:22.128Z,26.30
2022-09-07T14:44:50.261Z,26.10
2022-09-07T14:47:33.968Z,26.10
2022-09-07T14:50:06.059Z,26.10
2022-09-07T14:53:33.368Z,26.10
2022-09-07T14:55:37.421Z,26.20
2022-09-07T14:58:13.500Z,26.20
2022-09-07T15:00:42.592Z,26.20
2022-09-07T15:03:25.020Z,26.20
2022-09-07T15:05:51.910Z,26.00
2022-09-07T15:08:21.076Z,26.10
2022-09-07T15:11:32.975Z,26.10
2022-09-07T15:13:36.374Z,26.10
2022-09-07T15:16:24.708Z,26.10
2022-09-07T15:18:56.575Z,26.10
2022-09-07T15:21:24.706Z,26.10
2022-09-07T15:23:53.214Z,26.10
2022-09-07T15:29:11.203Z,26.00
2022-09-07T15:31:42.199Z,26.00
2022-09-07T15:34:13.924Z,26.00
2022-09-07T15:36:43.286Z,26.00
2022-09-07T15:39:26.646Z,26.00
2022-09-07T15:41:53.958Z,26.00
2022-09-07T15:44:25.180Z,25.90
2022-09-07T15:49:49.531Z,25.80
2022-09-07T15:52:17.556Z,25.70
2022-09-07T15:54:44.485Z,25.70
2022-09-07T15:59:58.539Z,25.80
2022-09-07T16:05:13.325Z,25.80
2022-09-07T16:10:31.075Z,25.60
2022-09-07T16:13:03.278Z,25.50
2022-09-07T16:15:46.058Z,25.40
2022-09-07T16:18:17.748Z,25.30
2022-09-07T16:20:45.569Z,25.20
2022-09-07T16:23:15.189Z,25.00
2022-09-07T16:25:46.105Z,25.00
2022-09-07T16:28:13.090Z,24.90
2022-09-07T16:30:40.893Z,24.90
2022-09-07T16:33:07.975Z,24.70
2022-09-07T16:35:35.055Z,24.60
2022-09-07T16:40:50.914Z,24.20
2022-09-07T16:43:17.778Z,24.00
2022-09-07T16:48:33.384Z,23.70
2022-09-07T16:51:02.650Z,23.70
2022-09-07T16:53:31.835Z,23.70
2022-09-07T16:56:06.730Z,23.70
2022-09-07T16:58:36.150Z,23.70
2022-09-07T17:01:08.632Z,23.70
2022-09-07T17:03:39.364Z,23.60
2022-09-07T17:06:08.249Z,23.60
2022-09-07T17:08:36.505Z,23.50
2022-09-07T17:11:11.883Z,23.40
2022-09-07T17:13:40.855Z,23.40
2022-09-07T17:16:11.961Z,23.30
2022-09-07T17:21:36.662Z,23.20
2022-09-07T17:24:05.667Z,23.10
2022-09-07T17:26:33.241Z,23.00
2022-09-07T17:29:00.963Z,23.00
2022-09-07T17:34:18.325Z,22.90
2022-09-07T17:36:45.371Z,22.80
2022-09-07T17:39:17.146Z,22.70
2022-09-07T17:41:45.089Z,22.60
2022-09-07T17:44:12.392Z,22.40
2022-09-07T17:46:39.345Z,22.10
2022-09-07T17:49:09.553Z,21.50
2022-09-07T17:51:36.671Z,21.20
2022-09-07T17:54:12.924Z,21.00
2022-09-07T17:56:41.042Z,20.90
2022-09-07T18:01:56.056Z,20.70
2022-09-07T18:04:23.375Z,20.50
2022-09-07T18:06:50.907Z,20.40
2022-09-07T18:09:19.317Z,20.30
2022-09-07T18:11:48.165Z,20.30
2022-09-07T18:14:16.171Z,20.30
2022-09-07T18:16:45.052Z,20.30
2022-09-07T18:19:12.916Z,20.40
2022-09-07T18:21:42.142Z,20.40
2022-09-07T18:24:29.516Z,20.40
2022-09-07T18:26:56.496Z,20.50
2022-09-07T18:29:29.524Z,20.40
2022-09-07T18:31:58.493Z,20.50
2022-09-07T18:34:25.663Z,20.40
2022-09-07T18:36:52.510Z,20.30
2022-09-07T18:39:19.351Z,20.30
2022-09-07T18:41:46.292Z,20.20
2022-09-07T18:47:00.544Z,20.10
2022-09-07T18:49:27.452Z,20.10
2022-09-07T18:54:41.604Z,20.20
2022-09-07T18:57:08.725Z,20.20
2022-09-07T18:59:35.923Z,20.20
2022-09-07T19:02:04.904Z,20.30
2022-09-07T19:07:21.029Z,20.30
2022-09-07T19:09:48.420Z,20.30
2022-09-07T19:12:15.840Z,20.30
2022-09-07T19:14:42.701Z,20.30
2022-09-07T19:17:12.627Z,20.30
2022-09-07T19:23:27.413Z,20.20
2022-09-07T19:25:55.219Z,20.10
2022-09-07T19:28:22.075Z,20.00
2022-09-07T19:30:48.821Z,20.00
2022-09-07T19:33:15.669Z,20.00
2022-09-07T19:35:42.914Z,20.00
2022-09-07T19:38:10.251Z,20.00
2022-09-07T19:40:37.120Z,20.00
2022-09-07T19:43:04.348Z,20.00
2022-09-07T19:45:31.461Z,20.00
2022-09-07T19:47:58.353Z,20.00
2022-09-07T19:50:25.230Z,19.90
2022-09-07T19:52:52.059Z,19.90
2022-09-07T19:55:18.992Z,19.80
2022-09-07T19:57:47.474Z,19.80
2022-09-07T20:00:14.795Z,19.80
2022-09-07T20:02:41.626Z,19.80
2022-09-07T20:05:11.785Z,19.80
2022-09-07T20:07:38.641Z,19.80
2022-09-07T20:10:06.765Z,19.60
2022-09-07T20:12:33.637Z,19.60
2022-09-07T20:15:00.499Z,19.50
2022-09-07T20:17:30.704Z,19.50
2022-09-07T20:20:01.476Z,19.50
2022-09-07T20:22:28.587Z,19.40
2022-09-07T20:24:55.495Z,19.30
2022-09-07T20:27:22.539Z,19.30
2022-09-07T20:29:50.834Z,19.30
2022-09-07T20:32:17.867Z,19.30
2022-09-07T20:34:46.164Z,19.30
2022-09-07T20:37:13.108Z,19.30
2022-09-07T20:39:40.117Z,19.30
2022-09-07T20:42:07.830Z,19.30
2022-09-07T20:44:34.763Z,19.30
2022-09-07T20:47:01.778Z,19.30
2022-09-07T20:49:28.753Z,19.30
2022-09-07T20:51:55.519Z,19.30
2022-09-07T20:54:22.658Z,19.20
2022-09-07T20:56:49.555Z,19.20
2022-09-07T20:59:16.556Z,19.10
2022-09-07T21:01:43.706Z,19.00
2022-09-07T21:04:10.669Z,19.00
2022-09-07T21:06:37.600Z,18.90
2022-09-07T21:09:04.526Z,18.80
2022-09-07T21:11:34.174Z,18.70
2022-09-07T21:14:07.192Z,18.70
2022-09-07T21:16:35.621Z,18.70
2022-09-07T21:19:04.807Z,18.70
2022-09-07T21:21:38.573Z,18.70
2022-09-07T21:24:07.169Z,18.70
2022-09-07T21:26:34.219Z,18.70
2022-09-07T21:29:03.807Z,18.70
2022-09-07T21:31:31.957Z,18.70
2022-09-07T21:34:00.300Z,18.60
2022-09-07T21:36:28.233Z,18.60
2022-09-07T21:38:55.855Z,18.60
2022-09-07T21:41:24.742Z,18.60
2022-09-07T21:43:59.582Z,18.60
2022-09-07T21:46:27.674Z,18.60
2022-09-07T21:48:55.752Z,18.50
2022-09-07T21:51:23.283Z,18.50
2022-09-07T21:53:58.346Z,18.50
2022-09-07T21:56:26.307Z,18.40
2022-09-07T21:58:55.295Z,18.40
2022-09-07T22:01:23.161Z,18.40
2022-09-07T22:04:01.162Z,18.40
2022-09-07T22:06:28.853Z,18.30
2022-09-07T22:08:56.227Z,18.20
2022-09-07T22:11:24.783Z,18.20
2022-09-07T22:13:56.709Z,18.10
2022-09-07T22:16:24.224Z,18.10
2022-09-07T22:18:52.210Z,18.10
2022-09-07T22:21:24.820Z,18.10
2022-09-07T22:23:56.024Z,18.10
2022-09-07T22:26:25.782Z,18.10
2022-09-07T22:28:52.669Z,18.10
2022-09-07T22:31:25.074Z,18.10
2022-09-07T22:33:53.018Z,18.00
2022-09-07T22:36:21.965Z,18.00
2022-09-07T22:38:52.577Z,17.90
2022-09-07T22:41:34.445Z,17.90
2022-09-07T22:44:02.213Z,17.90
2022-09-07T22:46:31.075Z,17.80
2022-09-07T22:48:59.069Z,17.80
2022-09-07T22:51:27.161Z,17.80
2022-09-07T22:53:54.814Z,17.80
2022-09-07T22:56:24.789Z,17.80
2022-09-07T22:59:12.223Z,17.80
2022-09-07T23:01:39.735Z,17.80
2022-09-07T23:04:07.859Z,17.70
2022-09-07T23:06:37.524Z,17.70
2022-09-07T23:09:10.838Z,17.70
2022-09-07T23:11:38.459Z,17.60
2022-09-07T23:14:07.940Z,17.60
2022-09-07T23:16:35.111Z,17.50
2022-09-07T23:19:02.107Z,17.50
2022-09-07T23:21:29.281Z,17.50
2022-09-07T23:23:58.195Z,17.40
2022-09-07T23:26:27.816Z,17.40
2022-09-07T23:28:57.801Z,17.40
2022-09-07T23:31:25.871Z,17.30
2022-09-07T23:33:52.833Z,17.20
2022-09-07T23:36:20.507Z,17.30
2022-09-07T23:38:48.173Z,17.30
2022-09-07T23:41:18.020Z,17.20
2022-09-07T23:43:45.276Z,17.20
2022-09-07T23:46:13.607Z,17.20
2022-09-07T23:48:42.594Z,17.20
2022-09-07T23:51:09.521Z,17.10
2022-09-07T23:53:36.372Z,17.10
2022-09-07T23:56:03.952Z,17.10
2022-09-07T23:58:30.825Z,17.10
